Harrison, Ohio
Current Conditions -  °F | °C
As of 10:15 AM on Sunday 21 Dec 2014 (Local Time) from KI67 Reporting Station
Clear Clear  
Wind Chill: -2°   Ceiling: Unl
Heat Index: -2°   Visibility: 4mi
Dew Point: -3°   Wind: 0mph
Humidity: 93%   Direction: NA
Pressure: 30.32"   Gusts: NA
Location:  39.26°N, 84.82°W
Report Text: KI67 211515Z AUTO 00000KT 4SM CLR M02/M03 A3032 RMK AO1
Loading
Personal Weather Stations






























Interactive Weather Map New forecast layout! Learn more

10-Day Weather Forecast

Advertisements
Track Severe Weather on mobile